sensor_id;sensor_type;location;lat;lon;timestamp;pressure;altitude;pressure_sealevel;temperature;humidity
17936;BME280;9093;52.062;4.508;2023-06-22T00:01:44;102273.03;;;19.75;65.49
17936;BME280;9093;52.062;4.508;2023-06-22T00:04:24;102274.78;;;19.76;65.79
17936;BME280;9093;52.062;4.508;2023-06-22T00:07:05;102275.63;;;19.76;65.51
17936;BME280;9093;52.062;4.508;2023-06-22T00:09:46;102275.84;;;19.73;65.55
17936;BME280;9093;52.062;4.508;2023-06-22T00:12:26;102266.00;;;19.72;65.64
17936;BME280;9093;52.062;4.508;2023-06-22T00:15:06;102267.16;;;19.68;65.81
17936;BME280;9093;52.062;4.508;2023-06-22T00:17:47;102259.38;;;19.63;65.84
17936;BME280;9093;52.062;4.508;2023-06-22T00:20:28;102258.50;;;19.63;65.73
17936;BME280;9093;52.062;4.508;2023-06-22T00:23:09;102255.88;;;19.61;66.07
17936;BME280;9093;52.062;4.508;2023-06-22T00:25:49;102264.16;;;19.60;66.16
17936;BME280;9093;52.062;4.508;2023-06-22T00:28:30;102266.09;;;19.58;66.14
17936;BME280;9093;52.062;4.508;2023-06-22T00:31:13;102261.72;;;19.55;66.14
17936;BME280;9093;52.062;4.508;2023-06-22T00:33:53;102269.97;;;19.54;66.22
17936;BME280;9093;52.062;4.508;2023-06-22T00:36:34;102255.66;;;19.52;66.24
17936;BME280;9093;52.062;4.508;2023-06-22T00:39:14;102251.22;;;19.51;66.37
17936;BME280;9093;52.062;4.508;2023-06-22T00:41:55;102245.03;;;19.49;66.49
17936;BME280;9093;52.062;4.508;2023-06-22T00:44:36;102249.56;;;19.48;66.63
17936;BME280;9093;52.062;4.508;2023-06-22T00:47:17;102247.97;;;19.46;66.56
17936;BME280;9093;52.062;4.508;2023-06-22T00:49:58;102246.19;;;19.45;66.57
17936;BME280;9093;52.062;4.508;2023-06-22T00:52:38;102240.00;;;19.43;66.63
17936;BME280;9093;52.062;4.508;2023-06-22T00:55:24;102237.38;;;19.41;66.67
17936;BME280;9093;52.062;4.508;2023-06-22T00:58:06;102237.38;;;19.41;66.55
17936;BME280;9093;52.062;4.508;2023-06-22T01:00:51;102247.38;;;19.41;66.72
17936;BME280;9093;52.062;4.508;2023-06-22T01:03:31;102239.34;;;19.39;66.87
17936;BME280;9093;52.062;4.508;2023-06-22T01:06:21;102228.72;;;19.36;66.86
17936;BME280;9093;52.062;4.508;2023-06-22T01:09:15;102226.97;;;19.35;67.04
17936;BME280;9093;52.062;4.508;2023-06-22T01:12:02;102226.88;;;19.37;66.93
17936;BME280;9093;52.062;4.508;2023-06-22T01:14:52;102245.84;;;19.37;66.96
17936;BME280;9093;52.062;4.508;2023-06-22T01:17:36;102244.09;;;19.36;67.20
17936;BME280;9093;52.062;4.508;2023-06-22T01:20:20;102246.06;;;19.34;67.27
17936;BME280;9093;52.062;4.508;2023-06-22T01:26:22;102229.81;;;19.34;67.33
17936;BME280;9093;52.062;4.508;2023-06-22T01:29:10;102234.13;;;19.36;67.38
17936;BME280;9093;52.062;4.508;2023-06-22T01:31:54;102230.69;;;19.34;67.42
17936;BME280;9093;52.062;4.508;2023-06-22T01:34:37;102227.84;;;19.36;67.25
17936;BME280;9093;52.062;4.508;2023-06-22T01:37:21;102226.16;;;19.35;67.49
17936;BME280;9093;52.062;4.508;2023-06-22T01:40:02;102225.28;;;19.34;67.33
17936;BME280;9093;52.062;4.508;2023-06-22T01:42:45;102227.84;;;19.36;67.51
17936;BME280;9093;52.062;4.508;2023-06-22T01:45:27;102237.16;;;19.32;67.43
17936;BME280;9093;52.062;4.508;2023-06-22T01:48:07;102234.78;;;19.27;67.54
17936;BME280;9093;52.062;4.508;2023-06-22T01:50:48;102232.06;;;19.27;67.79
17936;BME280;9093;52.062;4.508;2023-06-22T01:53:28;102234.78;;;19.27;67.52
17936;BME280;9093;52.062;4.508;2023-06-22T01:56:09;102226.75;;;19.25;67.81
17936;BME280;9093;52.062;4.508;2023-06-22T01:59:03;102229.00;;;19.19;67.47
17936;BME280;9093;52.062;4.508;2023-06-22T02:02:02;102238.19;;;19.16;67.77
17936;BME280;9093;52.062;4.508;2023-06-22T02:04:48;102221.94;;;19.16;67.93
17936;BME280;9093;52.062;4.508;2023-06-22T02:07:34;102220.44;;;19.12;68.17
17936;BME280;9093;52.062;4.508;2023-06-22T02:10:19;102224.34;;;19.08;68.23
17936;BME280;9093;52.062;4.508;2023-06-22T02:13:04;102219.88;;;19.07;68.21
17936;BME280;9093;52.062;4.508;2023-06-22T02:15:46;102220.00;;;19.06;68.24
17936;BME280;9093;52.062;4.508;2023-06-22T02:18:27;102222.78;;;19.04;68.17
17936;BME280;9093;52.062;4.508;2023-06-22T02:21:08;102220.41;;;19.00;68.40
17936;BME280;9093;52.062;4.508;2023-06-22T02:23:48;102219.53;;;18.99;68.47
17936;BME280;9093;52.062;4.508;2023-06-22T02:26:28;102220.63;;;18.97;68.36
17936;BME280;9093;52.062;4.508;2023-06-22T02:29:09;102220.81;;;18.94;68.57
17936;BME280;9093;52.062;4.508;2023-06-22T02:31:49;102216.47;;;18.91;68.43
17936;BME280;9093;52.062;4.508;2023-06-22T02:34:29;102209.34;;;18.90;68.57
17936;BME280;9093;52.062;4.508;2023-06-22T02:37:10;102213.75;;;18.91;68.59
17936;BME280;9093;52.062;4.508;2023-06-22T02:39:50;102208.25;;;18.93;68.76
17936;BME280;9093;52.062;4.508;2023-06-22T02:42:31;102201.09;;;18.92;68.65
17936;BME280;9093;52.062;4.508;2023-06-22T02:45:11;102205.63;;;18.91;68.68
17936;BME280;9093;52.062;4.508;2023-06-22T02:47:51;102211.81;;;18.93;68.79
17936;BME280;9093;52.062;4.508;2023-06-22T02:50:32;102210.75;;;18.96;68.84
17936;BME280;9093;52.062;4.508;2023-06-22T02:53:12;102212.38;;;18.98;68.69
17936;BME280;9093;52.062;4.508;2023-06-22T02:55:52;102219.94;;;18.93;68.74
17936;BME280;9093;52.062;4.508;2023-06-22T02:58:33;102217.56;;;18.88;69.04
17936;BME280;9093;52.062;4.508;2023-06-22T03:01:18;102220.25;;;18.88;68.81
17936;BME280;9093;52.062;4.508;2023-06-22T03:04:04;102211.28;;;18.88;68.87
17936;BME280;9093;52.062;4.508;2023-06-22T03:06:44;102215.81;;;18.87;69.04
17936;BME280;9093;52.062;4.508;2023-06-22T03:09:30;102226.72;;;18.86;69.10
17936;BME280;9093;52.062;4.508;2023-06-22T03:12:11;102218.63;;;18.86;69.23
17936;BME280;9093;52.062;4.508;2023-06-22T03:14:51;102229.44;;;18.86;69.24
17936;BME280;9093;52.062;4.508;2023-06-22T03:17:32;102224.03;;;18.86;69.14
17936;BME280;9093;52.062;4.508;2023-06-22T03:20:12;102208.88;;;18.83;69.22
17936;BME280;9093;52.062;4.508;2023-06-22T03:22:52;102189.25;;;18.80;69.30
17936;BME280;9093;52.062;4.508;2023-06-22T03:25:33;102188.47;;;18.78;69.30
17936;BME280;9093;52.062;4.508;2023-06-22T03:28:13;102181.56;;;18.74;69.51
17936;BME280;9093;52.062;4.508;2023-06-22T03:30:54;102189.56;;;18.75;69.48
17936;BME280;9093;52.062;4.508;2023-06-22T03:33:34;102180.59;;;18.75;69.11
17936;BME280;9093;52.062;4.508;2023-06-22T03:36:15;102194.88;;;18.77;69.61
17936;BME280;9093;52.062;4.508;2023-06-22T03:39:02;102190.44;;;18.76;69.55
17936;BME280;9093;52.062;4.508;2023-06-22T03:41:43;102190.53;;;18.74;69.60
17936;BME280;9093;52.062;4.508;2023-06-22T03:44:23;102190.63;;;18.73;69.61
17936;BME280;9093;52.062;4.508;2023-06-22T03:47:04;102194.31;;;18.72;69.45
17936;BME280;9093;52.062;4.508;2023-06-22T03:49:44;102181.88;;;18.69;69.72
17936;BME280;9093;52.062;4.508;2023-06-22T03:52:24;102183.88;;;18.66;69.86
17936;BME280;9093;52.062;4.508;2023-06-22T03:55:06;102183.88;;;18.66;69.89
17936;BME280;9093;52.062;4.508;2023-06-22T03:57:47;102184.47;;;18.71;69.78
17936;BME280;9093;52.062;4.508;2023-06-22T04:00:27;102182.66;;;18.71;69.80
17936;BME280;9093;52.062;4.508;2023-06-22T04:03:11;102177.09;;;18.73;69.80
17936;BME280;9093;52.062;4.508;2023-06-22T04:05:52;102180.03;;;18.70;69.81
17936;BME280;9093;52.062;4.508;2023-06-22T04:08:32;102169.22;;;18.70;69.89
17936;BME280;9093;52.062;4.508;2023-06-22T04:11:12;102170.19;;;18.69;69.90
17936;BME280;9093;52.062;4.508;2023-06-22T04:13:52;102181.00;;;18.69;70.03
17936;BME280;9093;52.062;4.508;2023-06-22T04:16:33;102173.94;;;18.66;70.06
17936;BME280;9093;52.062;4.508;2023-06-22T04:19:14;102174.81;;;18.67;70.09
17936;BME280;9093;52.062;4.508;2023-06-22T04:21:57;102179.06;;;18.71;70.18
17936;BME280;9093;52.062;4.508;2023-06-22T04:24:37;102178.94;;;18.72;70.01
17936;BME280;9093;52.062;4.508;2023-06-22T04:27:18;102184.94;;;18.77;70.18
17936;BME280;9093;52.062;4.508;2023-06-22T04:29:59;102185.78;;;18.78;70.13
17936;BME280;9093;52.062;4.508;2023-06-22T04:32:40;102174.94;;;18.78;70.17
17936;BME280;9093;52.062;4.508;2023-06-22T04:35:21;102177.47;;;18.81;70.57
17936;BME280;9093;52.062;4.508;2023-06-22T04:38:02;102181.69;;;18.85;70.44
17936;BME280;9093;52.062;4.508;2023-06-22T04:40:43;102185.94;;;18.89;70.32
17936;BME280;9093;52.062;4.508;2023-06-22T04:43:23;102188.53;;;18.91;70.33
17936;BME280;9093;52.062;4.508;2023-06-22T04:46:04;102183.78;;;18.94;70.42
17936;BME280;9093;52.062;4.508;2023-06-22T04:48:44;102185.31;;;18.98;70.58
17936;BME280;9093;52.062;4.508;2023-06-22T04:51:24;102188.56;;;19.03;70.15
17936;BME280;9093;52.062;4.508;2023-06-22T04:54:09;102179.28;;;19.07;70.19
17936;BME280;9093;52.062;4.508;2023-06-22T04:56:50;102180.06;;;19.09;70.42
17936;BME280;9093;52.062;4.508;2023-06-22T04:59:37;102188.91;;;19.11;70.52
17936;BME280;9093;52.062;4.508;2023-06-22T05:02:19;102184.28;;;19.13;70.70
17936;BME280;9093;52.062;4.508;2023-06-22T05:04:59;102182.13;;;19.18;70.61
17936;BME280;9093;52.062;4.508;2023-06-22T05:07:44;102187.34;;;19.21;70.56
17936;BME280;9093;52.062;4.508;2023-06-22T05:10:24;102181.69;;;19.24;70.74
17936;BME280;9093;52.062;4.508;2023-06-22T05:13:05;102186.91;;;19.27;70.72
17936;BME280;9093;52.062;4.508;2023-06-22T05:15:45;102181.06;;;19.34;70.83
17936;BME280;9093;52.062;4.508;2023-06-22T05:18:30;102186.25;;;19.37;70.76
17936;BME280;9093;52.062;4.508;2023-06-22T05:21:11;102184.31;;;19.39;70.71
17936;BME280;9093;52.062;4.508;2023-06-22T05:23:52;102184.09;;;19.42;70.84
17936;BME280;9093;52.062;4.508;2023-06-22T05:26:34;102182.25;;;19.42;70.93
17936;BME280;9093;52.062;4.508;2023-06-22T05:29:14;102188.44;;;19.44;70.71
17936;BME280;9093;52.062;4.508;2023-06-22T05:31:55;102180.25;;;19.46;70.96
17936;BME280;9093;52.062;4.508;2023-06-22T05:34:35;102188.38;;;19.46;70.94
17936;BME280;9093;52.062;4.508;2023-06-22T05:37:15;102182.84;;;19.47;70.97
17936;BME280;9093;52.062;4.508;2023-06-22T05:39:56;102180.97;;;19.48;71.04
17936;BME280;9093;52.062;4.508;2023-06-22T05:42:37;102190.75;;;19.50;71.01
17936;BME280;9093;52.062;4.508;2023-06-22T05:45:17;102185.22;;;19.52;71.27
17936;BME280;9093;52.062;4.508;2023-06-22T05:47:57;102187.94;;;19.52;71.09
17936;BME280;9093;52.062;4.508;2023-06-22T05:50:38;102187.84;;;19.53;71.21
17936;BME280;9093;52.062;4.508;2023-06-22T05:53:18;102190.41;;;19.55;71.35
17936;BME280;9093;52.062;4.508;2023-06-22T05:55:59;102184.91;;;19.56;71.28
17936;BME280;9093;52.062;4.508;2023-06-22T05:58:39;102181.31;;;19.56;71.31
17936;BME280;9093;52.062;4.508;2023-06-22T06:01:19;102181.13;;;19.59;71.33
17936;BME280;9093;52.062;4.508;2023-06-22T06:04:00;102187.41;;;19.59;71.43
17936;BME280;9093;52.062;4.508;2023-06-22T06:06:40;102186.31;;;19.62;71.49
17936;BME280;9093;52.062;4.508;2023-06-22T06:09:21;102176.25;;;19.64;71.48
17936;BME280;9093;52.062;4.508;2023-06-22T06:12:01;102173.53;;;19.64;71.58
17936;BME280;9093;52.062;4.508;2023-06-22T06:14:43;102171.59;;;19.66;71.61
17936;BME280;9093;52.062;4.508;2023-06-22T06:17:23;102177.75;;;19.68;71.75
17936;BME280;9093;52.062;4.508;2023-06-22T06:20:04;102177.63;;;19.70;71.73
17936;BME280;9093;52.062;4.508;2023-06-22T06:22:45;102175.69;;;19.72;71.67
17936;BME280;9093;52.062;4.508;2023-06-22T06:25:25;102172.84;;;19.73;71.90
17936;BME280;9093;52.062;4.508;2023-06-22T06:28:06;102178.06;;;19.76;71.88
17936;BME280;9093;52.062;4.508;2023-06-22T06:30:46;102176.13;;;19.78;71.83
17936;BME280;9093;52.062;4.508;2023-06-22T06:33:27;102172.41;;;19.79;71.90
17936;BME280;9093;52.062;4.508;2023-06-22T06:36:07;102173.19;;;19.81;71.99
17936;BME280;9093;52.062;4.508;2023-06-22T06:38:48;102166.69;;;19.84;72.27
17936;BME280;9093;52.062;4.508;2023-06-22T06:41:28;102167.44;;;19.86;72.09
17936;BME280;9093;52.062;4.508;2023-06-22T06:44:09;102165.47;;;19.88;72.15
17936;BME280;9093;52.062;4.508;2023-06-22T06:46:49;102165.28;;;19.91;72.09
17936;BME280;9093;52.062;4.508;2023-06-22T06:49:31;102165.91;;;19.94;72.04
17936;BME280;9093;52.062;4.508;2023-06-22T06:52:11;102173.84;;;19.97;72.26
17936;BME280;9093;52.062;4.508;2023-06-22T06:54:51;102165.47;;;20.00;72.02
17936;BME280;9093;52.062;4.508;2023-06-22T06:57:32;102164.38;;;20.03;72.25
17936;BME280;9093;52.062;4.508;2023-06-22T07:00:14;102159.69;;;20.05;72.01
17936;BME280;9093;52.062;4.508;2023-06-22T07:02:55;102150.47;;;20.07;72.04
17936;BME280;9093;52.062;4.508;2023-06-22T07:05:35;102145.69;;;20.11;72.27
17936;BME280;9093;52.062;4.508;2023-06-22T07:08:15;102144.63;;;20.14;72.17
17936;BME280;9093;52.062;4.508;2023-06-22T07:10:56;102150.56;;;20.19;71.94
17936;BME280;9093;52.062;4.508;2023-06-22T07:13:36;102138.53;;;20.23;71.87
17936;BME280;9093;52.062;4.508;2023-06-22T07:16:17;102143.72;;;20.26;72.05
17936;BME280;9093;52.062;4.508;2023-06-22T07:18:58;102148.91;;;20.29;71.64
17936;BME280;9093;52.062;4.508;2023-06-22T07:21:38;102142.31;;;20.33;71.77
17936;BME280;9093;52.062;4.508;2023-06-22T07:24:20;102132.22;;;20.35;72.04
17936;BME280;9093;52.062;4.508;2023-06-22T07:27:00;102137.19;;;20.41;71.67
17936;BME280;9093;52.062;4.508;2023-06-22T07:29:42;102139.75;;;20.42;71.84
17936;BME280;9093;52.062;4.508;2023-06-22T07:32:23;102137.72;;;20.46;71.61
17936;BME280;9093;52.062;4.508;2023-06-22T07:35:03;102136.47;;;20.50;71.70
17936;BME280;9093;52.062;4.508;2023-06-22T07:37:45;102138.00;;;20.54;71.72
17936;BME280;9093;52.062;4.508;2023-06-22T07:40:25;102135.91;;;20.58;71.55
17936;BME280;9093;52.062;4.508;2023-06-22T07:43:06;102133.84;;;20.61;71.51
17936;BME280;9093;52.062;4.508;2023-06-22T07:45:49;102123.50;;;20.66;71.47
17936;BME280;9093;52.062;4.508;2023-06-22T07:48:32;102120.31;;;20.72;71.26
17936;BME280;9093;52.062;4.508;2023-06-22T07:51:13;102116.38;;;20.76;71.46
17936;BME280;9093;52.062;4.508;2023-06-22T07:53:54;102112.44;;;20.80;71.17
17936;BME280;9093;52.062;4.508;2023-06-22T07:56:35;102113.94;;;20.84;71.07
17936;BME280;9093;52.062;4.508;2023-06-22T07:59:15;102110.75;;;20.91;71.09
17936;BME280;9093;52.062;4.508;2023-06-22T08:01:56;102107.78;;;20.94;70.98
17936;BME280;9093;52.062;4.508;2023-06-22T08:04:36;102104.50;;;21.01;70.58
17936;BME280;9093;52.062;4.508;2023-06-22T08:07:16;102099.72;;;21.05;70.82
17936;BME280;9093;52.062;4.508;2023-06-22T08:09:59;102094.03;;;21.08;70.39
17936;BME280;9093;52.062;4.508;2023-06-22T08:12:40;102099.94;;;21.13;70.46
17936;BME280;9093;52.062;4.508;2023-06-22T08:15:20;102104.22;;;21.17;70.34
17936;BME280;9093;52.062;4.508;2023-06-22T08:18:02;102098.41;;;21.21;70.36
17936;BME280;9093;52.062;4.508;2023-06-22T08:20:42;102095.44;;;21.24;69.89
17936;BME280;9093;52.062;4.508;2023-06-22T08:23:22;102094.13;;;21.30;69.85
17936;BME280;9093;52.062;4.508;2023-06-22T08:26:03;102085.69;;;21.33;69.94
17936;BME280;9093;52.062;4.508;2023-06-22T08:28:43;102084.47;;;21.37;69.91
17936;BME280;9093;52.062;4.508;2023-06-22T08:31:23;102085.97;;;21.41;69.55
17936;BME280;9093;52.062;4.508;2023-06-22T08:34:03;102092.88;;;21.45;69.44
17936;BME280;9093;52.062;4.508;2023-06-22T08:36:44;102090.91;;;21.47;69.16
17936;BME280;9093;52.062;4.508;2023-06-22T08:39:28;102086.94;;;21.51;69.03
17936;BME280;9093;52.062;4.508;2023-06-22T08:42:10;102086.44;;;21.57;68.90
17936;BME280;9093;52.062;4.508;2023-06-22T08:44:50;102087.69;;;21.64;68.67
17936;BME280;9093;52.062;4.508;2023-06-22T08:47:30;102079.16;;;21.69;68.75
17936;BME280;9093;52.062;4.508;2023-06-22T08:50:11;102082.88;;;21.79;68.57
17936;BME280;9093;52.062;4.508;2023-06-22T08:52:52;102082.38;;;21.85;68.40
17936;BME280;9093;52.062;4.508;2023-06-22T08:55:33;102081.00;;;21.91;68.58
17936;BME280;9093;52.062;4.508;2023-06-22T08:58:13;102079.53;;;21.98;68.51
17936;BME280;9093;52.062;4.508;2023-06-22T09:00:54;102077.31;;;22.03;68.38
17936;BME280;9093;52.062;4.508;2023-06-22T09:03:34;102076.69;;;22.11;68.24
17936;BME280;9093;52.062;4.508;2023-06-22T09:06:16;102068.00;;;22.17;68.36
17936;BME280;9093;52.062;4.508;2023-06-22T09:08:56;102070.09;;;22.24;68.12
17936;BME280;9093;52.062;4.508;2023-06-22T09:11:39;102065.88;;;22.31;67.92
17936;BME280;9093;52.062;4.508;2023-06-22T09:14:20;102067.06;;;22.38;67.86
17936;BME280;9093;52.062;4.508;2023-06-22T09:17:00;102064.56;;;22.46;67.92
17936;BME280;9093;52.062;4.508;2023-06-22T09:19:41;102062.31;;;22.52;67.70
17936;BME280;9093;52.062;4.508;2023-06-22T09:22:21;102068.09;;;22.58;67.73
17936;BME280;9093;52.062;4.508;2023-06-22T09:25:01;102064.13;;;22.62;67.74
17936;BME280;9093;52.062;4.508;2023-06-22T09:27:43;102064.47;;;22.69;67.68
17936;BME280;9093;52.062;4.508;2023-06-22T09:30:23;102070.28;;;22.75;67.93
17936;BME280;9093;52.062;4.508;2023-06-22T09:33:03;102066.06;;;22.82;67.34
17936;BME280;9093;52.062;4.508;2023-06-22T09:35:44;102056.94;;;22.93;67.27
17936;BME280;9093;52.062;4.508;2023-06-22T09:38:24;102050.97;;;22.99;67.31
17936;BME280;9093;52.062;4.508;2023-06-22T09:41:05;102058.47;;;23.07;67.42
17936;BME280;9093;52.062;4.508;2023-06-22T09:43:45;102051.63;;;23.12;66.89
17936;BME280;9093;52.062;4.508;2023-06-22T09:46:25;102052.81;;;23.19;66.74
17936;BME280;9093;52.062;4.508;2023-06-22T09:49:06;102043.09;;;23.27;66.50
17936;BME280;9093;52.062;4.508;2023-06-22T09:51:46;102040.81;;;23.32;66.61
17936;BME280;9093;52.062;4.508;2023-06-22T09:54:26;102033.09;;;23.37;66.35
17936;BME280;9093;52.062;4.508;2023-06-22T09:57:07;102038.75;;;23.45;66.11
17936;BME280;9093;52.062;4.508;2023-06-22T09:59:47;102031.78;;;23.52;66.02
17936;BME280;9093;52.062;4.508;2023-06-22T10:02:27;102037.81;;;23.55;66.04
17936;BME280;9093;52.062;4.508;2023-06-22T10:05:08;102037.13;;;23.63;65.62
17936;BME280;9093;52.062;4.508;2023-06-22T10:07:48;102030.38;;;23.67;65.30
17936;BME280;9093;52.062;4.508;2023-06-22T10:10:28;102035.28;;;23.73;65.26
17936;BME280;9093;52.062;4.508;2023-06-22T10:13:09;102038.44;;;23.78;64.95
17936;BME280;9093;52.062;4.508;2023-06-22T10:15:50;102043.34;;;23.84;64.43
17936;BME280;9093;52.062;4.508;2023-06-22T10:18:32;102039.34;;;23.88;64.72
17936;BME280;9093;52.062;4.508;2023-06-22T10:21:12;102040.78;;;23.92;64.16
17936;BME280;9093;52.062;4.508;2023-06-22T10:23:53;102050.41;;;23.96;64.39
17936;BME280;9093;52.062;4.508;2023-06-22T10:26:33;102042.81;;;24.00;63.89
17936;BME280;9093;52.062;4.508;2023-06-22T10:29:13;102045.25;;;24.03;64.04
17936;BME280;9093;52.062;4.508;2023-06-22T10:31:53;102035.94;;;24.05;63.96
17936;BME280;9093;52.062;4.508;2023-06-22T10:34:34;102033.06;;;24.07;63.65
17936;BME280;9093;52.062;4.508;2023-06-22T10:37:14;102035.66;;;24.09;63.68
17936;BME280;9093;52.062;4.508;2023-06-22T10:39:54;102039.09;;;24.11;63.78
17936;BME280;9093;52.062;4.508;2023-06-22T10:42:35;102037.22;;;24.11;63.79
17936;BME280;9093;52.062;4.508;2023-06-22T10:45:15;102036.22;;;24.12;64.21
17936;BME280;9093;52.062;4.508;2023-06-22T10:47:55;102039.81;;;24.13;63.63
17936;BME280;9093;52.062;4.508;2023-06-22T10:50:36;102041.69;;;24.12;64.05
17936;BME280;9093;52.062;4.508;2023-06-22T10:53:16;102048.13;;;24.11;64.03
17936;BME280;9093;52.062;4.508;2023-06-22T10:55:56;102036.38;;;24.11;63.63
17936;BME280;9093;52.062;4.508;2023-06-22T10:58:37;102039.09;;;24.11;63.95
17936;BME280;9093;52.062;4.508;2023-06-22T11:01:17;102045.41;;;24.11;63.97
17936;BME280;9093;52.062;4.508;2023-06-22T11:03:57;102042.81;;;24.10;64.13
17936;BME280;9093;52.062;4.508;2023-06-22T11:06:38;102040.09;;;24.10;64.15
17936;BME280;9093;52.062;4.508;2023-06-22T11:09:18;102037.09;;;24.13;63.91
17936;BME280;9093;52.062;4.508;2023-06-22T11:12:01;102047.88;;;24.14;63.84
17936;BME280;9093;52.062;4.508;2023-06-22T11:14:41;102036.78;;;24.16;63.90
17936;BME280;9093;52.062;4.508;2023-06-22T11:17:21;102038.28;;;24.20;63.97
17936;BME280;9093;52.062;4.508;2023-06-22T11:20:02;102043.44;;;24.23;63.96
17936;BME280;9093;52.062;4.508;2023-06-22T11:22:49;102044.91;;;24.27;63.94
17936;BME280;9093;52.062;4.508;2023-06-22T11:25:30;102030.25;;;24.28;64.10
17936;BME280;9093;52.062;4.508;2023-06-22T11:28:14;102049.06;;;24.31;63.99
17936;BME280;9093;52.062;4.508;2023-06-22T11:30:55;102040.59;;;24.34;63.59
17936;BME280;9093;52.062;4.508;2023-06-22T11:33:35;102032.41;;;24.34;63.61
17936;BME280;9093;52.062;4.508;2023-06-22T11:36:16;102029.38;;;24.37;63.58
17936;BME280;9093;52.062;4.508;2023-06-22T11:38:56;102027.38;;;24.39;63.91
17936;BME280;9093;52.062;4.508;2023-06-22T11:41:36;102020.75;;;24.41;63.86
17936;BME280;9093;52.062;4.508;2023-06-22T11:44:17;102021.63;;;24.42;63.60
17936;BME280;9093;52.062;4.508;2023-06-22T11:46:57;102023.34;;;24.43;64.06
17936;BME280;9093;52.062;4.508;2023-06-22T11:49:37;102023.34;;;24.43;64.04
17936;BME280;9093;52.062;4.508;2023-06-22T11:52:18;102012.44;;;24.43;63.67
17936;BME280;9093;52.062;4.508;2023-06-22T11:54:59;102010.69;;;24.42;63.98
17936;BME280;9093;52.062;4.508;2023-06-22T11:57:55;102007.41;;;24.38;63.88
17936;BME280;9093;52.062;4.508;2023-06-22T12:00:36;102002.09;;;24.37;63.72
17936;BME280;9093;52.062;4.508;2023-06-22T12:03:16;102001.34;;;24.35;63.66
17936;BME280;9093;52.062;4.508;2023-06-22T12:05:56;101996.94;;;24.34;63.79
17936;BME280;9093;52.062;4.508;2023-06-22T12:08:37;101985.28;;;24.32;63.96
17936;BME280;9093;52.062;4.508;2023-06-22T12:11:17;101982.56;;;24.32;63.76
17936;BME280;9093;52.062;4.508;2023-06-22T12:13:57;101985.56;;;24.29;64.10
17936;BME280;9093;52.062;4.508;2023-06-22T12:16:41;101982.81;;;24.29;64.13
17936;BME280;9093;52.062;4.508;2023-06-22T12:19:24;101981.13;;;24.28;63.80
17936;BME280;9093;52.062;4.508;2023-06-22T12:22:04;101981.41;;;24.25;63.80
17936;BME280;9093;52.062;4.508;2023-06-22T12:24:44;101972.47;;;24.23;63.84
17936;BME280;9093;52.062;4.508;2023-06-22T12:27:25;101974.53;;;24.21;64.30
17936;BME280;9093;52.062;4.508;2023-06-22T12:30:06;101968.34;;;24.19;64.34
17936;BME280;9093;52.062;4.508;2023-06-22T12:32:46;101962.97;;;24.17;64.13
17936;BME280;9093;52.062;4.508;2023-06-22T12:35:26;101954.94;;;24.16;64.02
17936;BME280;9093;52.062;4.508;2023-06-22T12:38:07;101959.56;;;24.15;64.27
17936;BME280;9093;52.062;4.508;2023-06-22T12:40:48;101958.69;;;24.15;64.24
17936;BME280;9093;52.062;4.508;2023-06-22T12:43:29;101955.66;;;24.18;64.35
17936;BME280;9093;52.062;4.508;2023-06-22T12:46:09;101941.28;;;24.16;64.51
17936;BME280;9093;52.062;4.508;2023-06-22T12:48:50;101954.78;;;24.17;64.52
17936;BME280;9093;52.062;4.508;2023-06-22T12:51:30;101950.97;;;24.20;64.42
17936;BME280;9093;52.062;4.508;2023-06-22T12:54:11;101955.41;;;24.21;64.74
17936;BME280;9093;52.062;4.508;2023-06-22T12:56:51;101956.13;;;24.23;64.68
17936;BME280;9093;52.062;4.508;2023-06-22T12:59:31;101957.84;;;24.24;64.90
17936;BME280;9093;52.062;4.508;2023-06-22T13:02:12;101954.25;;;24.23;64.74
17936;BME280;9093;52.062;4.508;2023-06-22T13:04:54;101956.13;;;24.23;64.62
17936;BME280;9093;52.062;4.508;2023-06-22T13:07:34;101955.09;;;24.24;64.62
17936;BME280;9093;52.062;4.508;2023-06-22T13:10:15;101960.56;;;24.24;64.69
17936;BME280;9093;52.062;4.508;2023-06-22T13:12:55;101961.56;;;24.23;64.96
17936;BME280;9093;52.062;4.508;2023-06-22T13:15:40;101958.16;;;24.21;65.00
17936;BME280;9093;52.062;4.508;2023-06-22T13:18:20;101952.06;;;24.17;64.94
17936;BME280;9093;52.062;4.508;2023-06-22T13:21:04;101952.19;;;24.16;64.67
17936;BME280;9093;52.062;4.508;2023-06-22T13:23:45;101951.50;;;24.14;64.82
17936;BME280;9093;52.062;4.508;2023-06-22T13:26:25;101948.03;;;24.12;65.01
17936;BME280;9093;52.062;4.508;2023-06-22T13:29:05;101941.84;;;24.10;64.77
17936;BME280;9093;52.062;4.508;2023-06-22T13:31:46;101942.16;;;24.07;65.26
17936;BME280;9093;52.062;4.508;2023-06-22T13:34:26;101947.63;;;24.07;64.73
17936;BME280;9093;52.062;4.508;2023-06-22T13:37:06;101942.16;;;24.07;64.79
17936;BME280;9093;52.062;4.508;2023-06-22T13:39:47;101939.72;;;24.03;64.88
17936;BME280;9093;52.062;4.508;2023-06-22T13:42:27;101933.56;;;24.01;64.79
17936;BME280;9093;52.062;4.508;2023-06-22T13:45:08;101937.28;;;24.00;64.92
17936;BME280;9093;52.062;4.508;2023-06-22T13:47:48;101932.81;;;23.99;64.84
17936;BME280;9093;52.062;4.508;2023-06-22T13:50:28;101932.81;;;23.99;65.05
17936;BME280;9093;52.062;4.508;2023-06-22T13:53:10;101924.91;;;23.96;64.72
17936;BME280;9093;52.062;4.508;2023-06-22T13:55:50;101920.47;;;23.95;65.11
17936;BME280;9093;52.062;4.508;2023-06-22T13:58:30;101915.31;;;23.92;64.83
17936;BME280;9093;52.062;4.508;2023-06-22T14:01:11;101913.56;;;23.91;65.18
17936;BME280;9093;52.062;4.508;2023-06-22T14:03:51;101918.47;;;23.88;64.90
17936;BME280;9093;52.062;4.508;2023-06-22T14:06:31;101918.59;;;23.86;64.95
17936;BME280;9093;52.062;4.508;2023-06-22T14:09:12;101913.28;;;23.85;64.97
17936;BME280;9093;52.062;4.508;2023-06-22T14:11:54;101922.47;;;23.84;65.29
17936;BME280;9093;52.062;4.508;2023-06-22T14:14:34;101922.47;;;23.84;65.16
17936;BME280;9093;52.062;4.508;2023-06-22T14:17:15;101918.16;;;23.81;65.04